Flight Track Log - Related Links

Times and Time Zones

All times are in EDT time to prevent confusion due to time zone crossing. See the TAM3242 flight status page for this flight to view local times or setup timezone preferences in your user account.

Time Position Orientation Groundspeed Altitude Reporting Facility
EDT Latitude Longitude Course Direction KTS MPH feet Rate Location/Type
Mon 06:09:00 AM -22.5749 -47.0129 343° North  Level Estimated
Mon 06:10:00 AM -22.4998 -47.0383 343° North  Level Estimated
Mon 06:11:00 AM -22.4246 -47.0636 343° North  Level Estimated
Mon 06:12:00 AM -22.3494 -47.0888 343° North  Level Estimated
Mon 06:13:00 AM -22.2743 -47.1141 343° North  Level Estimated
Mon 06:14:00 AM -22.1991 -47.1393 343° North  Level Estimated
Mon 06:15:00 AM -22.1239 -47.1645 343° North  Level Estimated
Mon 06:16:00 AM -22.0487 -47.1897 343° North  Level Estimated
Mon 06:17:00 AM -21.9736 -47.2148 343° North  Level Estimated
Mon 06:18:00 AM -21.8984 -47.2399 343° North  Level Estimated
Mon 06:19:00 AM -21.8232 -47.2650 343° North  Level Estimated
Mon 06:20:00 AM -21.7480 -47.2901 343° North  Level Estimated
Mon 06:21:00 AM -21.6728 -47.3151 343° North  Level Estimated
Mon 06:22:00 AM -21.5976 -47.3401 343° North  Level Estimated
Mon 06:23:00 AM -21.5224 -47.3651 343° North  Level Estimated
Mon 06:24:00 AM -21.4471 -47.3900 343° North  Level Estimated
Mon 06:25:00 AM -21.3719 -47.4150 343° North  Level Estimated
Mon 06:26:00 AM -21.2967 -47.4399 343° North  Level Estimated
Mon 06:27:00 AM -21.2215 -47.4647 343° North  Level Estimated
Mon 06:28:00 AM -21.1463 -47.4896 343° North  Level Estimated
Mon 06:29:00 AM -21.0710 -47.5144 343° North  Level Estimated
Mon 06:30:00 AM -20.9958 -47.5392 343° North  Level Estimated
Mon 06:31:00 AM -20.9206 -47.5640 343° North  Level Estimated
Mon 06:32:00 AM -20.8453 -47.5887 343° North  Level Estimated
Mon 06:33:00 AM -20.7701 -47.6135 343° North  Level Estimated
Mon 06:34:00 AM -20.6948 -47.6382 343° North  Level Estimated
Mon 06:35:00 AM -20.6196 -47.6629 343° North  Level Estimated
Mon 06:36:00 AM -20.5443 -47.6875 343° North  Level Estimated
Mon 06:37:00 AM -20.4691 -47.7121 343° North  Level Estimated
Mon 06:38:00 AM -20.3938 -47.7368 343° North  Level Estimated
Mon 06:39:00 AM -20.3186 -47.7613 343° North  Level Estimated
Mon 06:40:00 AM -20.2433 -47.7859 343° North  Level Estimated
Mon 06:41:00 AM -20.1680 -47.8104 343° North  Level Estimated
Mon 06:42:00 AM -20.0928 -47.8349 343° North  Level Estimated
Mon 06:43:00 AM -20.0175 -47.8594 343° North  Level Estimated
Mon 06:44:00 AM -19.9422 -47.8839 343° North  Level Estimated
Mon 06:45:00 AM -19.8669 -47.9083 343° North  Level Estimated
Mon 06:46:00 AM -19.7916 -47.9327 343° North  Level Estimated
Mon 06:47:00 AM -19.7163 -47.9571 343° North  Level Estimated
Mon 06:48:00 AM -19.6410 -47.9815 343° North  Level Estimated
Mon 06:49:00 AM -19.5657 -48.0059 343° North  Level Estimated
Mon 06:50:00 AM -19.4904 -48.0302 343° North  Level Estimated
Mon 06:51:00 AM -19.4151 -48.0545 343° North  Level Estimated
Mon 06:52:00 AM -19.3398 -48.0788 343° North  Level Estimated
Mon 06:53:00 AM -19.2645 -48.1030 343° North  Level Estimated
Mon 06:54:00 AM -19.1892 -48.1273 343° North  Level Estimated
Mon 06:55:00 AM -19.1139 -48.1515 343° North  Level Estimated
Mon 06:56:00 AM -19.0386 -48.1757 343° North  Level Estimated
Mon 06:57:00 AM -18.9632 -48.1998 343° North  Level Estimated
Mon 06:58:00 AM -18.8879 -48.2240 343° North  Level Estimated
Mon 06:59:00 AM -18.8828 -48.2256 343° North  Level Estimated
Mon 07:00:00 AM -18.8828 -48.2256 223° Southwest  Level Estimated
Mon 07:01:00 AM -18.8828 -48.2256 223° Southwest  Level Estimated
Mon 07:02:00 AM -18.8828 -48.2256 223° Southwest  Level Estimated
Mon 07:03:00 AM -18.8828 -48.2256 223° Southwest  Level Estimated
Mon 07:04:00 AM -18.8828 -48.2256 223° Southwest  Level Estimated
Mon 07:05:00 AM -18.8828 -48.2256 223° Southwest  Level Estimated
Mon 07:06:00 AM -18.8828 -48.2256 223° Southwest  Level Estimated
Mon 07:07:00 AM -18.8828 -48.2256 223° Southwest  Level Estimated
Mon 07:08:00 AM -18.8828 -48.2256 223° Southwest  Level Estimated
Mon 07:09:00 AM -18.8828 -48.2256 223° Southwest  Level Estimated
Mon 07:10:00 AM -18.8828 -48.2256 223° Southwest  Level Estimated
Mon 07:11:00 AM -18.8828 -48.2256 223° Southwest  Level Estimated
Mon 07:12:00 AM -18.8828 -48.2256 223° Southwest  Level Estimated
Mon 07:13:00 AM -18.8828 -48.2256 223° Southwest  Level Estimated
Mon 07:14:00 AM -18.8828 -48.2256 223° Southwest  Level Estimated

Login

Don't have an account? Register now (free) for customized features, flight alerts, and more!